createdAt,value
2018-04-01T00:00:26.408Z,0.00
2018-04-01T00:01:26.416Z,0.00
2018-04-01T00:02:26.425Z,0.00
2018-04-01T00:03:26.433Z,0.00
2018-04-01T00:04:26.445Z,0.00
2018-04-01T00:05:26.451Z,0.00
2018-04-01T00:06:26.462Z,0.00
2018-04-01T00:07:26.482Z,0.00
2018-04-01T00:08:26.494Z,0.00
2018-04-01T00:09:26.499Z,0.00
2018-04-01T00:10:26.508Z,0.00
2018-04-01T00:11:26.517Z,0.00
2018-04-01T00:12:26.528Z,0.00
2018-04-01T00:13:26.547Z,0.00
2018-04-01T00:14:26.557Z,0.00
2018-04-01T00:15:26.565Z,0.00
2018-04-01T00:16:26.575Z,0.00
2018-04-01T00:17:26.582Z,0.00
2018-04-01T00:18:26.604Z,0.00
2018-04-01T00:19:26.615Z,0.00
2018-04-01T00:20:26.622Z,0.00
2018-04-01T00:21:26.632Z,0.00
2018-04-01T00:22:26.640Z,0.00
2018-04-01T00:23:26.649Z,0.00
2018-04-01T00:24:26.658Z,0.00
2018-04-01T00:25:26.679Z,0.00
2018-04-01T00:26:26.689Z,0.00
2018-04-01T00:27:26.699Z,0.00
2018-04-01T00:28:26.707Z,0.00
2018-04-01T00:29:26.718Z,0.00
2018-04-01T00:30:26.724Z,0.00
2018-04-01T00:31:26.745Z,0.00
2018-04-01T00:32:26.759Z,0.00
2018-04-01T00:33:26.764Z,0.00
2018-04-01T00:34:26.775Z,0.00
2018-04-01T00:35:26.793Z,0.00
2018-04-01T00:36:26.790Z,0.00
2018-04-01T00:37:26.799Z,0.00
2018-04-01T00:38:26.821Z,0.00
2018-04-01T00:39:26.829Z,0.00
2018-04-01T00:40:26.838Z,0.00
2018-04-01T00:41:26.846Z,0.00
2018-04-01T00:42:26.856Z,0.00
2018-04-01T00:43:26.864Z,0.00
2018-04-01T00:44:26.885Z,0.00
2018-04-01T00:45:26.895Z,0.00
2018-04-01T00:46:26.903Z,0.00
2018-04-01T00:47:26.913Z,0.00
2018-04-01T00:48:26.920Z,0.00
2018-04-01T00:49:26.931Z,0.00
2018-04-01T00:50:26.940Z,0.00
2018-04-01T00:51:26.960Z,0.00
2018-04-01T00:52:26.974Z,0.00
2018-04-01T00:53:26.978Z,0.00
2018-04-01T00:54:26.988Z,0.00
2018-04-01T00:55:26.997Z,0.00
2018-04-01T00:56:27.005Z,0.00
2018-04-01T00:57:27.015Z,0.00
2018-04-01T00:58:27.035Z,0.00
2018-04-01T00:59:27.044Z,0.00
2018-04-01T01:00:27.052Z,0.00
2018-04-01T01:01:27.073Z,0.00
2018-04-01T01:02:27.070Z,0.00
2018-04-01T01:03:27.080Z,0.00
2018-04-01T01:04:27.101Z,0.00
2018-04-01T01:05:27.109Z,0.00
2018-04-01T01:06:27.119Z,0.00
2018-04-01T01:07:27.127Z,0.00
2018-04-01T01:08:27.137Z,0.00
2018-04-01T01:09:27.145Z,0.00
2018-04-01T01:10:27.154Z,0.00
2018-04-01T01:11:27.176Z,0.00
2018-04-01T01:12:27.184Z,0.00
2018-04-01T01:13:27.193Z,0.00
2018-04-01T01:14:27.203Z,0.00
2018-04-01T01:15:27.211Z,0.00
2018-04-01T01:16:27.219Z,0.00
2018-04-01T01:17:27.229Z,0.00
2018-04-01T01:18:27.251Z,0.00
2018-04-01T01:19:27.259Z,0.00
2018-04-01T01:20:27.268Z,0.00
2018-04-01T01:21:27.277Z,0.00
2018-04-01T01:22:27.287Z,0.00
2018-04-01T01:23:27.294Z,0.00
2018-04-01T01:24:27.368Z,0.00
2018-04-01T01:25:27.325Z,0.00
2018-04-01T01:26:27.333Z,0.00
2018-04-01T01:27:27.343Z,0.00
2018-04-01T01:28:27.351Z,0.00
2018-04-01T01:29:27.361Z,0.00
2018-04-01T01:30:27.369Z,0.00
2018-04-01T01:31:27.391Z,0.00
2018-04-01T01:32:27.403Z,0.00
2018-04-01T01:33:27.408Z,0.00
2018-04-01T01:34:27.419Z,0.00
2018-04-01T01:35:27.427Z,0.00
2018-04-01T01:36:27.436Z,0.00
2018-04-01T01:37:27.444Z,0.00
2018-04-01T01:38:27.479Z,0.00
2018-04-01T01:39:27.475Z,0.00
2018-04-01T01:40:27.482Z,0.00
2018-04-01T01:41:27.493Z,0.00
2018-04-01T01:42:27.500Z,0.00
2018-04-01T01:43:27.511Z,0.00
2018-04-01T01:44:27.519Z,0.00
2018-04-01T01:45:27.540Z,0.00
2018-04-01T01:46:27.550Z,0.00
2018-04-01T01:47:27.570Z,0.00
2018-04-01T01:48:27.568Z,0.00
2018-04-01T01:49:27.575Z,0.00
2018-04-01T01:50:27.593Z,0.00
2018-04-01T01:51:27.594Z,0.00
2018-04-01T01:52:27.619Z,0.00
2018-04-01T01:53:27.624Z,0.00
2018-04-01T01:54:27.632Z,0.00
2018-04-01T01:55:27.642Z,0.00
2018-04-01T01:56:27.663Z,0.00
2018-04-01T01:57:27.660Z,0.00
2018-04-01T01:58:27.668Z,0.00
2018-04-01T01:59:27.689Z,0.00
2018-04-01T02:00:27.705Z,0.00
2018-04-01T02:01:27.707Z,0.00
2018-04-01T02:02:27.719Z,0.00
2018-04-01T02:03:27.725Z,0.00
2018-04-01T02:04:27.736Z,0.00
2018-04-01T02:05:27.747Z,0.00
2018-04-01T02:06:27.753Z,0.00
2018-04-01T02:07:27.774Z,0.00
2018-04-01T02:08:27.782Z,0.00
2018-04-01T02:09:27.791Z,0.00
2018-04-01T02:10:27.800Z,0.00
2018-04-01T02:11:27.809Z,0.00
2018-04-01T02:12:27.818Z,0.00
2018-04-01T02:13:27.827Z,0.00
2018-04-01T02:14:27.847Z,0.00
2018-04-01T02:15:27.856Z,0.00
2018-04-01T02:16:27.866Z,0.00
2018-04-01T02:17:27.874Z,0.00
2018-04-01T02:18:27.883Z,0.00
2018-04-01T02:19:27.893Z,0.00
2018-04-01T02:20:27.902Z,0.00
2018-04-01T02:21:27.911Z,0.00
2018-04-01T02:22:27.944Z,0.00
2018-04-01T02:23:27.941Z,0.00
2018-04-01T02:24:27.954Z,0.00
2018-04-01T02:25:27.959Z,0.00
2018-04-01T02:26:27.967Z,0.00
2018-04-01T02:27:27.976Z,0.00
2018-04-01T02:28:27.985Z,0.00
2018-04-01T02:29:27.997Z,0.00
2018-04-01T02:30:28.017Z,0.00
2018-04-01T02:31:28.112Z,0.00
2018-04-01T02:32:28.034Z,0.00
2018-04-01T02:33:28.043Z,0.00
2018-04-01T02:34:28.056Z,0.00
2018-04-01T02:35:28.061Z,0.00
2018-04-01T02:36:28.070Z,0.00
2018-04-01T02:37:28.091Z,0.00
2018-04-01T02:38:28.100Z,0.00
2018-04-01T02:39:28.110Z,0.00
2018-04-01T02:40:28.131Z,0.00
2018-04-01T02:41:28.126Z,0.00
2018-04-01T02:42:28.139Z,0.00
2018-04-01T02:43:28.145Z,0.00
2018-04-01T02:44:28.154Z,0.00
2018-04-01T02:45:28.186Z,0.00
2018-04-01T02:46:28.183Z,0.00
2018-04-01T02:47:28.191Z,0.00
2018-04-01T02:48:28.201Z,0.00
2018-04-01T02:49:28.222Z,0.00
2018-04-01T02:50:28.220Z,0.00
2018-04-01T02:51:28.226Z,0.00
2018-04-01T02:52:28.249Z,0.00
2018-04-01T02:53:28.263Z,0.00
2018-04-01T02:54:28.280Z,0.00
2018-04-01T02:55:28.278Z,0.00
2018-04-01T02:56:28.283Z,0.00
2018-04-01T02:57:28.298Z,0.00
2018-04-01T02:58:28.315Z,0.00
2018-04-01T02:59:28.312Z,0.00
2018-04-01T03:00:28.322Z,0.00
2018-04-01T03:01:28.349Z,0.00
2018-04-01T03:02:28.353Z,0.00
2018-04-01T03:03:28.372Z,0.00
2018-04-01T03:04:28.377Z,0.00
2018-04-01T03:05:28.377Z,0.00
2018-04-01T03:06:28.390Z,0.00
2018-04-01T03:07:28.410Z,0.00
2018-04-01T03:08:28.415Z,0.00
2018-04-01T03:09:28.425Z,0.00
2018-04-01T03:10:28.433Z,0.00
2018-04-01T03:11:28.444Z,0.00
2018-04-01T03:12:28.465Z,0.00
2018-04-01T03:13:28.461Z,0.00
2018-04-01T03:14:28.469Z,0.00
2018-04-01T03:15:28.479Z,0.00
2018-04-01T03:16:28.500Z,0.00
2018-04-01T03:17:28.508Z,0.00
2018-04-01T03:18:28.518Z,0.00
2018-04-01T03:19:28.526Z,0.00
2018-04-01T03:20:28.535Z,0.00
2018-04-01T03:21:28.562Z,0.00
2018-04-01T03:22:28.553Z,0.00
2018-04-01T03:23:28.562Z,0.00
2018-04-01T03:24:28.586Z,0.00
2018-04-01T03:25:28.592Z,0.00
2018-04-01T03:26:28.600Z,0.00
2018-04-01T03:27:28.609Z,0.00
2018-04-01T03:28:28.618Z,0.00
2018-04-01T03:29:28.628Z,0.00
2018-04-01T03:30:28.638Z,0.00
2018-04-01T03:31:28.646Z,0.00
2018-04-01T03:32:28.667Z,0.00
2018-04-01T03:33:28.678Z,0.00
2018-04-01T03:34:28.690Z,0.00
2018-04-01T03:35:28.694Z,0.00
2018-04-01T03:36:28.702Z,0.00
2018-04-01T03:37:28.710Z,0.00
2018-04-01T03:38:28.720Z,0.00
2018-04-01T03:39:28.730Z,0.00
2018-04-01T03:40:28.750Z,0.00
2018-04-01T03:41:28.759Z,0.00
2018-04-01T03:42:28.769Z,0.00
2018-04-01T03:43:28.777Z,0.00
2018-04-01T03:44:28.785Z,0.00
2018-04-01T03:45:28.794Z,0.00
2018-04-01T03:46:28.803Z,0.00
2018-04-01T03:47:28.812Z,0.00
2018-04-01T03:48:28.834Z,0.00
2018-04-01T03:49:28.842Z,0.00
2018-04-01T03:50:28.852Z,0.00
2018-04-01T03:51:28.874Z,0.00
2018-04-01T03:52:28.869Z,0.00
2018-04-01T03:53:28.883Z,0.00
2018-04-01T03:54:28.887Z,0.00
2018-04-01T03:55:28.896Z,0.00
2018-04-01T03:56:28.930Z,0.00
2018-04-01T03:57:28.926Z,0.00
2018-04-01T03:58:28.937Z,0.00
2018-04-01T03:59:28.944Z,0.00
2018-04-01T04:00:28.968Z,0.00
2018-04-01T04:01:28.962Z,0.00
2018-04-01T04:02:28.970Z,0.00
2018-04-01T04:03:28.980Z,0.00
2018-04-01T04:04:28.989Z,0.00
2018-04-01T04:05:29.023Z,0.00
2018-04-01T04:06:29.019Z,0.00
2018-04-01T04:07:29.027Z,0.00
2018-04-01T04:08:29.037Z,0.00
2018-04-01T04:09:29.047Z,0.00
2018-04-01T04:10:29.055Z,0.00
2018-04-01T04:11:29.063Z,0.00
2018-04-01T04:12:29.072Z,0.00
2018-04-01T04:13:29.080Z,0.00
2018-04-01T04:14:29.115Z,0.00
2018-04-01T04:15:29.111Z,0.00
2018-04-01T04:16:29.127Z,0.00
2018-04-01T04:17:29.130Z,0.00
2018-04-01T04:18:29.141Z,0.00
2018-04-01T04:19:29.147Z,4.00
2018-04-01T04:20:29.155Z,4.00
2018-04-01T04:21:29.165Z,4.00
2018-04-01T04:22:29.173Z,0.00
2018-04-01T04:23:29.207Z,4.00
2018-04-01T04:24:29.205Z,4.00
2018-04-01T04:25:29.215Z,4.00
2018-04-01T04:26:29.221Z,4.00
2018-04-01T04:27:29.243Z,4.00
2018-04-01T04:28:29.240Z,8.00
2018-04-01T04:29:29.258Z,8.00
2018-04-01T04:30:29.259Z,8.00
2018-04-01T04:31:29.303Z,8.00
2018-04-01T04:32:29.275Z,12.00
2018-04-01T04:33:29.285Z,16.00
2018-04-01T04:34:29.504Z,16.00
2018-04-01T04:35:29.315Z,20.00
2018-04-01T04:36:29.371Z,20.00
2018-04-01T04:37:29.332Z,28.00
2018-04-01T04:38:29.340Z,24.00
2018-04-01T04:39:29.349Z,28.00
2018-04-01T04:40:29.358Z,36.00
2018-04-01T04:41:29.370Z,40.00
2018-04-01T04:42:29.376Z,40.00
2018-04-01T04:43:29.397Z,44.00
2018-04-01T04:44:29.408Z,48.00
2018-04-01T04:45:29.428Z,56.00
2018-04-01T04:46:29.427Z,64.00
2018-04-01T04:47:29.433Z,68.00
2018-04-01T04:48:29.441Z,76.00
2018-04-01T04:49:29.450Z,84.00
2018-04-01T04:50:29.461Z,88.00
2018-04-01T04:51:29.468Z,88.00
2018-04-01T04:52:29.478Z,104.00
2018-04-01T04:53:29.487Z,104.00
2018-04-01T04:54:29.507Z,108.00
2018-04-01T04:55:29.516Z,120.00
2018-04-01T04:56:29.544Z,128.00
2018-04-01T04:57:29.534Z,132.00
2018-04-01T04:58:29.543Z,132.00
2018-04-01T04:59:29.552Z,148.00
2018-04-01T05:00:29.560Z,156.00
2018-04-01T05:01:29.570Z,164.00
2018-04-01T05:02:29.579Z,176.00
2018-04-01T05:03:29.602Z,172.00
2018-04-01T05:04:29.610Z,188.00
2018-04-01T05:05:29.618Z,224.00
2018-04-01T05:06:29.627Z,200.00
2018-04-01T05:07:29.635Z,224.00
2018-04-01T05:08:29.647Z,224.00
2018-04-01T05:09:29.653Z,236.00
2018-04-01T05:10:29.663Z,260.00
2018-04-01T05:11:29.671Z,272.00
2018-04-01T05:12:29.709Z,292.00
2018-04-01T05:13:29.702Z,292.00
2018-04-01T05:14:29.712Z,336.00
2018-04-01T05:15:29.720Z,364.00
2018-04-01T05:16:29.729Z,408.00
2018-04-01T05:17:29.737Z,384.00
2018-04-01T05:18:29.748Z,440.00
2018-04-01T05:19:29.755Z,412.00
2018-04-01T05:20:29.764Z,388.00
2018-04-01T05:21:29.776Z,416.00
2018-04-01T05:22:29.794Z,476.00
2018-04-01T05:23:29.802Z,484.00
2018-04-01T05:24:29.812Z,464.00
2018-04-01T05:25:29.820Z,548.00
2018-04-01T05:26:29.830Z,540.00
2018-04-01T05:27:29.837Z,576.00
2018-04-01T05:28:29.859Z,608.00
2018-04-01T05:29:29.857Z,644.00
2018-04-01T05:30:29.866Z,724.00
2018-04-01T05:31:29.875Z,728.00
2018-04-01T05:32:29.895Z,676.00
2018-04-01T05:33:29.905Z,712.00
2018-04-01T05:34:29.912Z,752.00
2018-04-01T05:35:29.922Z,860.00
2018-04-01T05:36:29.930Z,900.00
2018-04-01T05:37:29.940Z,916.00
2018-04-01T05:38:29.948Z,924.00
2018-04-01T05:39:29.958Z,892.00
2018-04-01T05:40:29.967Z,852.00
2018-04-01T05:41:29.986Z,928.00
2018-04-01T05:42:29.997Z,948.00
2018-04-01T05:43:30.005Z,912.00
2018-04-01T05:44:30.023Z,944.00
2018-04-01T05:45:30.023Z,972.00
2018-04-01T05:46:30.032Z,932.00
2018-04-01T05:47:30.041Z,964.00
2018-04-01T05:48:30.050Z,1032.00
2018-04-01T05:49:30.058Z,1068.00
2018-04-01T05:50:30.080Z,1068.00
2018-04-01T05:51:30.092Z,1100.00
2018-04-01T05:52:30.097Z,1108.00
2018-04-01T05:53:30.107Z,1116.00
2018-04-01T05:54:30.115Z,1184.00
2018-04-01T05:55:30.124Z,1208.00
2018-04-01T05:56:30.133Z,1236.00
2018-04-01T05:57:30.143Z,1316.00
2018-04-01T05:58:30.151Z,1340.00
2018-04-01T05:59:30.172Z,1380.00
2018-04-01T06:00:30.182Z,1412.00
2018-04-01T06:01:30.190Z,1540.00
2018-04-01T06:02:30.199Z,1572.00
2018-04-01T06:03:30.207Z,1736.00
2018-04-01T06:04:30.217Z,1536.00
2018-04-01T06:05:30.226Z,1640.00
2018-04-01T06:06:30.235Z,1884.00
2018-04-01T06:07:30.245Z,1964.00
2018-04-01T06:08:30.265Z,2096.00
2018-04-01T06:09:30.280Z,2040.00
2018-04-01T06:10:30.282Z,2072.00
2018-04-01T06:11:30.292Z,2280.00
2018-04-01T06:12:30.300Z,2416.00
2018-04-01T06:13:30.321Z,2332.00
2018-04-01T06:14:30.318Z,2136.00
2018-04-01T06:15:30.343Z,2076.00
2018-04-01T06:16:30.349Z,2000.00
2018-04-01T06:17:30.357Z,2608.00
2018-04-01T06:18:30.366Z,2676.00
2018-04-01T06:19:30.388Z,2768.00
2018-04-01T06:20:30.384Z,2936.00
2018-04-01T06:21:30.392Z,3036.00
2018-04-01T06:22:30.405Z,3060.00
2018-04-01T06:23:30.424Z,3424.00
2018-04-01T06:24:30.431Z,3648.00
2018-04-01T06:25:30.442Z,2992.00
2018-04-01T06:26:30.449Z,2936.00
2018-04-01T06:27:30.459Z,3276.00
2018-04-01T06:28:30.471Z,3736.00
2018-04-01T06:29:30.477Z,3452.00
2018-04-01T06:30:30.499Z,3808.00
2018-04-01T06:31:30.506Z,3588.00
2018-04-01T06:32:30.516Z,3876.00
2018-04-01T06:33:30.524Z,3972.00
2018-04-01T06:34:30.534Z,3544.00
2018-04-01T06:35:30.542Z,3444.00
2018-04-01T06:36:30.563Z,3500.00
2018-04-01T06:37:30.573Z,3084.00
2018-04-01T06:38:30.581Z,3596.00
2018-04-01T06:39:30.590Z,3272.00
2018-04-01T06:40:30.599Z,3264.00
2018-04-01T06:41:30.612Z,3308.00
2018-04-01T06:42:30.618Z,3592.00
2018-04-01T06:43:30.637Z,3500.00
2018-04-01T06:44:30.647Z,3064.00
2018-04-01T06:45:30.681Z,3396.00
2018-04-01T06:46:30.665Z,3640.00
2018-04-01T06:47:30.673Z,3584.00
2018-04-01T06:48:30.683Z,3568.00
2018-04-01T06:49:30.705Z,4104.00
2018-04-01T06:50:30.730Z,4080.00
2018-04-01T06:51:30.724Z,4116.00
2018-04-01T06:52:30.739Z,4572.00
2018-04-01T06:53:30.741Z,4520.00
2018-04-01T06:54:30.751Z,4580.00
2018-04-01T06:55:30.770Z,3832.00
2018-04-01T06:56:30.779Z,3880.00
2018-04-01T06:57:30.787Z,4468.00
2018-04-01T06:58:30.797Z,4324.00
2018-04-01T06:59:30.817Z,4436.00
2018-04-01T07:00:30.819Z,4356.00
2018-04-01T07:01:30.836Z,4384.00
2018-04-01T07:02:30.863Z,4848.00
2018-04-01T07:03:30.853Z,5332.00
2018-04-01T07:04:30.863Z,4820.00
2018-04-01T07:05:30.872Z,4876.00
2018-04-01T07:06:30.880Z,4560.00
2018-04-01T07:07:30.903Z,4872.00
2018-04-01T07:08:30.911Z,5396.00
2018-04-01T07:09:30.919Z,4788.00
2018-04-01T07:10:30.928Z,4488.00
2018-04-01T07:11:30.937Z,5364.00
2018-04-01T07:12:30.957Z,5184.00
2018-04-01T07:13:30.972Z,5744.00
2018-04-01T07:14:30.976Z,5516.00
2018-04-01T07:15:30.985Z,5604.00
2018-04-01T07:16:30.995Z,6092.00
2018-04-01T07:17:31.054Z,5728.00
2018-04-01T07:18:31.024Z,6808.00
2018-04-01T07:19:31.034Z,6220.00
2018-04-01T07:20:31.042Z,6192.00
2018-04-01T07:21:31.064Z,5432.00
2018-04-01T07:22:31.061Z,6032.00
2018-04-01T07:23:31.070Z,5616.00
2018-04-01T07:24:31.090Z,6824.00
2018-04-01T07:25:31.099Z,6844.00
2018-04-01T07:26:31.109Z,6456.00
2018-04-01T07:27:31.117Z,6024.00
2018-04-01T07:28:31.126Z,6812.00
2018-04-01T07:29:31.148Z,6060.00
2018-04-01T07:30:31.156Z,6064.00
2018-04-01T07:31:31.164Z,7056.00
2018-04-01T07:32:31.175Z,6896.00
2018-04-01T07:33:31.182Z,6460.00
2018-04-01T07:34:31.203Z,6368.00
2018-04-01T07:35:31.214Z,6616.00
2018-04-01T07:36:31.226Z,7552.00
2018-04-01T07:37:31.230Z,8540.00
2018-04-01T07:38:31.240Z,8012.00
2018-04-01T07:39:31.261Z,8372.00
2018-04-01T07:40:31.273Z,8616.00
2018-04-01T07:41:31.278Z,7696.00
2018-04-01T07:42:31.288Z,7596.00
2018-04-01T07:43:31.298Z,7928.00
2018-04-01T07:44:31.317Z,8980.00
2018-04-01T07:45:31.326Z,8876.00
2018-04-01T07:46:31.336Z,8076.00
2018-04-01T07:47:31.345Z,7660.00
2018-04-01T07:48:31.370Z,8168.00
2018-04-01T07:49:31.375Z,8584.00
2018-04-01T07:50:31.384Z,8636.00
2018-04-01T07:51:31.392Z,9216.00
2018-04-01T07:52:31.402Z,8768.00
2018-04-01T07:53:31.423Z,8364.00
2018-04-01T07:54:31.432Z,8648.00
2018-04-01T07:55:31.441Z,8220.00
2018-04-01T07:56:31.449Z,8696.00
2018-04-01T07:57:31.470Z,9792.00
2018-04-01T07:58:31.481Z,9272.00
2018-04-01T07:59:31.488Z,9388.00
2018-04-01T08:00:31.499Z,8184.00
2018-04-01T08:01:31.506Z,8288.00
2018-04-01T08:02:31.527Z,9220.00
2018-04-01T08:03:31.537Z,10580.00
2018-04-01T08:04:31.546Z,9644.00
2018-04-01T08:05:31.555Z,10432.00
2018-04-01T08:06:31.577Z,9460.00
2018-04-01T08:07:31.584Z,8696.00
2018-04-01T08:08:31.594Z,9076.00
2018-04-01T08:09:31.602Z,7976.00
2018-04-01T08:10:31.623Z,8164.00
2018-04-01T08:11:31.634Z,7196.00
2018-04-01T08:12:31.641Z,9148.00
2018-04-01T08:13:31.652Z,8192.00
2018-04-01T08:14:31.672Z,7632.00
2018-04-01T08:15:31.681Z,8724.00
2018-04-01T08:16:31.690Z,8432.00
2018-04-01T08:17:31.701Z,7396.00
2018-04-01T08:18:31.720Z,7812.00
2018-04-01T08:19:31.730Z,9152.00
2018-04-01T08:20:31.755Z,8884.00
2018-04-01T08:21:31.748Z,8416.00
2018-04-01T08:22:31.756Z,8872.00
2018-04-01T08:23:31.776Z,7680.00
2018-04-01T08:24:31.786Z,7876.00
2018-04-01T08:25:31.794Z,8748.00
2018-04-01T08:26:31.804Z,8472.00
2018-04-01T08:27:31.825Z,7592.00
2018-04-01T08:28:31.846Z,7184.00
2018-04-01T08:29:31.842Z,8084.00
2018-04-01T08:30:31.852Z,11040.00
2018-04-01T08:31:31.872Z,10444.00
2018-04-01T08:32:31.882Z,12972.00
2018-04-01T08:33:31.903Z,13088.00
2018-04-01T08:34:31.900Z,11688.00
2018-04-01T08:35:31.921Z,11576.00
2018-04-01T08:36:31.929Z,12700.00
2018-04-01T08:37:31.939Z,12596.00
2018-04-01T08:38:31.948Z,11492.00
2018-04-01T08:39:31.968Z,12240.00
2018-04-01T08:40:31.978Z,14472.00
2018-04-01T08:41:31.987Z,14084.00
2018-04-01T08:42:32.000Z,12308.00
2018-04-01T08:43:32.017Z,14360.00
2018-04-01T08:44:32.026Z,14236.00
2018-04-01T08:45:32.036Z,16064.00
2018-04-01T08:46:32.057Z,12260.00
2018-04-01T08:47:32.066Z,12116.00
2018-04-01T08:48:32.074Z,14252.00
2018-04-01T08:49:32.091Z,15268.00
2018-04-01T08:50:32.104Z,12544.00
2018-04-01T08:51:32.119Z,13564.00
2018-04-01T08:52:32.122Z,13840.00
2018-04-01T08:53:32.143Z,14308.00
2018-04-01T08:54:32.152Z,13256.00
2018-04-01T08:55:32.161Z,11852.00
2018-04-01T08:56:32.205Z,12964.00
2018-04-01T08:57:32.192Z,13664.00
2018-04-01T08:58:32.200Z,11688.00
2018-04-01T08:59:32.227Z,11960.00
2018-04-01T09:00:32.231Z,12800.00
2018-04-01T09:01:32.239Z,14184.00
2018-04-01T09:02:32.249Z,13400.00
2018-04-01T09:03:32.270Z,11800.00
2018-04-01T09:04:32.279Z,13576.00
2018-04-01T09:05:32.289Z,13616.00
2018-04-01T09:06:32.310Z,13784.00
2018-04-01T09:07:32.317Z,14480.00
2018-04-01T09:08:32.326Z,12456.00
2018-04-01T09:09:32.348Z,12788.00
2018-04-01T09:10:32.382Z,11668.00
2018-04-01T09:11:32.369Z,13256.00
2018-04-01T09:12:32.390Z,14584.00
2018-04-01T09:13:32.410Z,11880.00
2018-04-01T09:14:32.405Z,12056.00
2018-04-01T09:15:32.427Z,12216.00
2018-04-01T09:16:32.434Z,11884.00
2018-04-01T09:17:32.445Z,10284.00
2018-04-01T09:18:32.466Z,11060.00
2018-04-01T09:19:32.518Z,11072.00
2018-04-01T09:20:32.484Z,11264.00
2018-04-01T09:21:32.492Z,11856.00
2018-04-01T09:22:32.513Z,11144.00
2018-04-01T09:23:32.523Z,11460.00
2018-04-01T09:24:32.531Z,8588.00
2018-04-01T09:25:32.554Z,11444.00
2018-04-01T09:26:32.563Z,12716.00
2018-04-01T09:27:32.572Z,10396.00
2018-04-01T09:28:32.591Z,10352.00
2018-04-01T09:29:32.642Z,11320.00
2018-04-01T09:30:32.610Z,10596.00
2018-04-01T09:31:32.630Z,9624.00
2018-04-01T09:32:32.640Z,10940.00
2018-04-01T09:33:32.649Z,10048.00
2018-04-01T09:34:32.658Z,10076.00
2018-04-01T09:35:32.682Z,9776.00
2018-04-01T09:36:32.688Z,9508.00
2018-04-01T09:37:32.697Z,10792.00
2018-04-01T09:38:32.719Z,11172.00
2018-04-01T09:39:32.727Z,12184.00
2018-04-01T09:40:32.736Z,10136.00
2018-04-01T09:41:32.746Z,13124.00
2018-04-01T09:42:32.766Z,10952.00
2018-04-01T09:43:32.776Z,13200.00
2018-04-01T09:44:32.785Z,13764.00
2018-04-01T09:45:32.805Z,14008.00
2018-04-01T09:46:32.815Z,12216.00
2018-04-01T09:47:32.822Z,10756.00
2018-04-01T09:48:32.844Z,10204.00
2018-04-01T09:49:32.854Z,11072.00
2018-04-01T09:50:32.862Z,10524.00
2018-04-01T09:51:32.883Z,11664.00
2018-04-01T09:52:32.893Z,11184.00
2018-04-01T09:53:32.902Z,10440.00
2018-04-01T09:54:32.922Z,11636.00
2018-04-01T09:55:32.932Z,9900.00
2018-04-01T09:56:32.940Z,9952.00
2018-04-01T09:57:32.949Z,10008.00
2018-04-01T09:58:32.971Z,9108.00
2018-04-01T09:59:32.980Z,9372.00
2018-04-01T10:00:32.990Z,9636.00
2018-04-01T10:01:33.010Z,8476.00
2018-04-01T10:02:33.032Z,10844.00
2018-04-01T10:03:33.028Z,9204.00
2018-04-01T10:04:33.049Z,8060.00
2018-04-01T10:05:33.063Z,8544.00
2018-04-01T10:06:33.068Z,7504.00
2018-04-01T10:07:33.077Z,7892.00
2018-04-01T10:08:33.097Z,7596.00
2018-04-01T10:09:33.108Z,7836.00
2018-04-01T10:10:33.115Z,7404.00
2018-04-01T10:11:33.136Z,6776.00
2018-04-01T10:12:33.150Z,6596.00
2018-04-01T10:13:33.154Z,7632.00
2018-04-01T10:14:33.175Z,7268.00
2018-04-01T10:15:33.184Z,7464.00
2018-04-01T10:16:33.193Z,7560.00
2018-04-01T10:17:33.204Z,7816.00
2018-04-01T10:18:33.226Z,6820.00
2018-04-01T10:19:33.233Z,6668.00
2018-04-01T10:20:33.246Z,7020.00
2018-04-01T10:21:33.252Z,8796.00
2018-04-01T10:22:33.271Z,7748.00
2018-04-01T10:23:33.281Z,8196.00
2018-04-01T10:24:33.288Z,8692.00
2018-04-01T10:25:33.310Z,8400.00
2018-04-01T10:26:33.321Z,7384.00
2018-04-01T10:27:33.328Z,8048.00
2018-04-01T10:28:33.340Z,7764.00
2018-04-01T10:29:33.359Z,8928.00
2018-04-01T10:30:33.367Z,8136.00
2018-04-01T10:31:33.377Z,7616.00
2018-04-01T10:32:33.427Z,8020.00
2018-04-01T10:33:33.407Z,9596.00
2018-04-01T10:34:33.417Z,8016.00
2018-04-01T10:35:33.424Z,8268.00
2018-04-01T10:36:33.446Z,8968.00
2018-04-01T10:37:33.455Z,10264.00
2018-04-01T10:38:33.463Z,9568.00
2018-04-01T10:39:33.473Z,10944.00
2018-04-01T10:40:33.495Z,12056.00
2018-04-01T10:41:33.503Z,10196.00
2018-04-01T10:42:33.512Z,10212.00
2018-04-01T10:43:33.522Z,10136.00
2018-04-01T10:44:33.542Z,12284.00
2018-04-01T10:45:33.551Z,10924.00
2018-04-01T10:46:33.559Z,10832.00
2018-04-01T10:47:33.582Z,12552.00
2018-04-01T10:48:33.590Z,9272.00
2018-04-01T10:49:33.612Z,14236.00
2018-04-01T10:50:33.608Z,10352.00
2018-04-01T10:51:33.634Z,12512.00
2018-04-01T10:52:33.639Z,12428.00
2018-04-01T10:53:33.649Z,11056.00
2018-04-01T10:54:33.670Z,11220.00
2018-04-01T10:55:33.684Z,11488.00
2018-04-01T10:56:33.686Z,10112.00
2018-04-01T10:57:33.695Z,11764.00
2018-04-01T10:58:33.716Z,12900.00
2018-04-01T10:59:33.725Z,10372.00
2018-04-01T11:00:33.734Z,12024.00
2018-04-01T11:01:33.768Z,13668.00
2018-04-01T11:02:33.765Z,11136.00
2018-04-01T11:03:33.774Z,12540.00
2018-04-01T11:04:33.794Z,11904.00
2018-04-01T11:05:33.810Z,13548.00
2018-04-01T11:06:33.812Z,10056.00
2018-04-01T11:07:33.834Z,12992.00
2018-04-01T11:08:33.844Z,10548.00
2018-04-01T11:09:33.851Z,11688.00
2018-04-01T11:10:33.873Z,11096.00
2018-04-01T11:11:33.883Z,10148.00
2018-04-01T11:12:33.894Z,12544.00
2018-04-01T11:13:33.914Z,13332.00
2018-04-01T11:14:33.923Z,12728.00
2018-04-01T11:15:33.930Z,14000.00
2018-04-01T11:16:33.952Z,10988.00
2018-04-01T11:17:33.960Z,9892.00
2018-04-01T11:18:33.969Z,11160.00
2018-04-01T11:19:33.992Z,11028.00
2018-04-01T11:20:34.000Z,11456.00
2018-04-01T11:21:34.008Z,12704.00
2018-04-01T11:22:34.033Z,11024.00
2018-04-01T11:23:34.040Z,11420.00
2018-04-01T11:24:34.049Z,9972.00
2018-04-01T11:25:34.068Z,14608.00
2018-04-01T11:26:34.079Z,12460.00
2018-04-01T11:27:34.100Z,13116.00
2018-04-01T11:28:34.107Z,13876.00
2018-04-01T11:29:34.118Z,12668.00
2018-04-01T11:30:34.129Z,11936.00
2018-04-01T11:31:34.148Z,10824.00
2018-04-01T11:32:34.157Z,14660.00
2018-04-01T11:33:34.164Z,13744.00
2018-04-01T11:34:34.186Z,11444.00
2018-04-01T11:35:34.195Z,11616.00
2018-04-01T11:36:34.205Z,12344.00
2018-04-01T11:37:34.225Z,13408.00
2018-04-01T11:38:34.235Z,12404.00
2018-04-01T11:39:34.244Z,13416.00
2018-04-01T11:40:34.264Z,12324.00
2018-04-01T11:41:34.274Z,14452.00
2018-04-01T11:42:34.286Z,14932.00
2018-04-01T11:43:34.304Z,15536.00
2018-04-01T11:44:34.314Z,19648.00
2018-04-01T11:45:34.323Z,16384.00
2018-04-01T11:46:34.342Z,18624.00
2018-04-01T11:47:34.353Z,16484.00
2018-04-01T11:48:34.374Z,15392.00
2018-04-01T11:49:34.383Z,17016.00
2018-04-01T11:50:34.392Z,14388.00
2018-04-01T11:51:34.413Z,14840.00
2018-04-01T11:52:34.421Z,13436.00
2018-04-01T11:53:34.430Z,13500.00
2018-04-01T11:54:34.452Z,12636.00
2018-04-01T11:55:34.460Z,16272.00
2018-04-01T11:56:34.482Z,20032.00
2018-04-01T11:57:34.492Z,16472.00
2018-04-01T11:58:34.500Z,14400.00
2018-04-01T11:59:34.534Z,18400.00
2018-04-01T12:00:34.531Z,21472.00
2018-04-01T12:01:34.539Z,22240.00
2018-04-01T12:02:34.574Z,19680.00
2018-04-01T12:03:34.570Z,15840.00
2018-04-01T12:04:34.580Z,19488.00
2018-04-01T12:05:34.599Z,20192.00
2018-04-01T12:06:34.608Z,21184.00
2018-04-01T12:07:34.631Z,21472.00
2018-04-01T12:08:34.638Z,22528.00
2018-04-01T12:09:34.648Z,21600.00
2018-04-01T12:10:34.669Z,22464.00
2018-04-01T12:11:34.677Z,22816.00
2018-04-01T12:12:34.702Z,21664.00
2018-04-01T12:13:34.709Z,20768.00
2018-04-01T12:14:34.717Z,20896.00
2018-04-01T12:15:34.738Z,20832.00
2018-04-01T12:16:34.750Z,19584.00
2018-04-01T12:17:34.758Z,18496.00
2018-04-01T12:18:34.777Z,16696.00
2018-04-01T12:19:34.787Z,18656.00
2018-04-01T12:20:34.807Z,13420.00
2018-04-01T12:21:34.816Z,11956.00
2018-04-01T12:22:34.837Z,9176.00
2018-04-01T12:23:34.847Z,9488.00
2018-04-01T12:24:34.856Z,10624.00
2018-04-01T12:25:34.877Z,13728.00
2018-04-01T12:26:34.887Z,14820.00
2018-04-01T12:27:34.910Z,13084.00